ACA416 CYYZ-CYUL
Flight info
| Callsign | ACA416 |
|---|---|
| Flight time | 0h 50m |
| Altitude | 33000 |
| Route | DEDKI5 MIGLO HABBS7 |
| Aircraft | A320/M-SDE3FGHIRWY/LB1 |
Departure
| Time | 2026-05-06 22:20 |
|---|---|
| Airport | Toronto Pearson International Airport (CYYZ) |
Arrival
| Time | 2026-05-06 23:10 |
|---|---|
| Airport | Montreal / Pierre Elliott Trudeau International Airport (CYUL) |
| Time | Latitude | Longitude | Altitude | Speed | Heading |
|---|---|---|---|---|---|
| 2026-05-06 21:37 | 43.68108 | -79.61552 | 562 ft | 0 kts | 98° |
| 2026-05-06 22:03 | 43.68112 | -79.61585 | 571 ft | 4 kts | 100° |
| 2026-05-06 22:03 | 43.68117 | -79.61621 | 569 ft | 4 kts | 102° |
| 2026-05-06 22:03 | 43.68123 | -79.61658 | 568 ft | 4 kts | 106° |
| 2026-05-06 22:04 | 43.68132 | -79.61693 | 571 ft | 4 kts | 116° |
| 2026-05-06 22:04 | 43.68146 | -79.61720 | 566 ft | 4 kts | 166° |
| 2026-05-06 22:04 | 43.68156 | -79.61721 | 567 ft | 1 kts | 197° |
| 2026-05-06 22:04 | 43.68157 | -79.61721 | 567 ft | 0 kts | 197° |
| 2026-05-06 22:08 | 43.68155 | -79.61722 | 561 ft | 2 kts | 197° |
| 2026-05-06 22:08 | 43.68128 | -79.61736 | 561 ft | 7 kts | 207° |
| 2026-05-06 22:08 | 43.68079 | -79.61798 | 563 ft | 12 kts | 227° |
| 2026-05-06 22:08 | 43.68012 | -79.61897 | 568 ft | 16 kts | 227° |
| 2026-05-06 22:09 | 43.67965 | -79.62029 | 564 ft | 15 kts | 249° |
| 2026-05-06 22:09 | 43.68017 | -79.62163 | 562 ft | 19 kts | 316° |
| 2026-05-06 22:09 | 43.68125 | -79.62298 | 562 ft | 21 kts | 316° |
| 2026-05-06 22:09 | 43.68232 | -79.62438 | 563 ft | 22 kts | 319° |
| 2026-05-06 22:10 | 43.68334 | -79.62560 | 562 ft | 17 kts | 317° |
| 2026-05-06 22:10 | 43.68415 | -79.62667 | 562 ft | 16 kts | 315° |
| 2026-05-06 22:10 | 43.68399 | -79.62798 | 568 ft | 14 kts | 228° |
| 2026-05-06 22:10 | 43.68342 | -79.62882 | 569 ft | 11 kts | 225° |
| 2026-05-06 22:11 | 43.68271 | -79.62984 | 570 ft | 14 kts | 226° |
| 2026-05-06 22:11 | 43.68209 | -79.63072 | 575 ft | 12 kts | 226° |
| 2026-05-06 22:11 | 43.68171 | -79.63169 | 573 ft | 14 kts | 277° |
| 2026-05-06 22:11 | 43.68241 | -79.63281 | 570 ft | 17 kts | 316° |
| 2026-05-06 22:12 | 43.68299 | -79.63356 | 567 ft | 18 kts | 317° |
| 2026-05-06 22:12 | 43.68394 | -79.63480 | 566 ft | 20 kts | 316° |
| 2026-05-06 22:12 | 43.68499 | -79.63615 | 566 ft | 21 kts | 316° |
| 2026-05-06 22:12 | 43.68604 | -79.63754 | 568 ft | 15 kts | 316° |
| 2026-05-06 22:13 | 43.68667 | -79.63861 | 572 ft | 16 kts | 282° |
| 2026-05-06 22:13 | 43.68673 | -79.64024 | 566 ft | 18 kts | 271° |
| 2026-05-06 22:13 | 43.68660 | -79.64195 | 569 ft | 18 kts | 236° |
| 2026-05-06 22:13 | 43.68578 | -79.64316 | 564 ft | 17 kts | 226° |
| 2026-05-06 22:14 | 43.68498 | -79.64430 | 572 ft | 15 kts | 226° |
| 2026-05-06 22:14 | 43.68432 | -79.64527 | 566 ft | 13 kts | 226° |
| 2026-05-06 22:14 | 43.68361 | -79.64630 | 566 ft | 16 kts | 226° |
| 2026-05-06 22:14 | 43.68285 | -79.64740 | 574 ft | 15 kts | 226° |
| 2026-05-06 22:15 | 43.68217 | -79.64838 | 569 ft | 14 kts | 226° |
| 2026-05-06 22:15 | 43.68152 | -79.64933 | 570 ft | 13 kts | 227° |
| 2026-05-06 22:15 | 43.68067 | -79.65057 | 568 ft | 22 kts | 226° |
| 2026-05-06 22:15 | 43.67957 | -79.65215 | 568 ft | 23 kts | 227° |
| 2026-05-06 22:16 | 43.67844 | -79.65379 | 564 ft | 25 kts | 225° |
| 2026-05-06 22:16 | 43.67729 | -79.65545 | 567 ft | 20 kts | 225° |
| 2026-05-06 22:16 | 43.67659 | -79.65647 | 569 ft | 13 kts | 227° |
| 2026-05-06 22:16 | 43.67605 | -79.65727 | 571 ft | 11 kts | 226° |
| 2026-05-06 22:17 | 43.67548 | -79.65809 | 573 ft | 14 kts | 226° |
| 2026-05-06 22:17 | 43.67470 | -79.65921 | 567 ft | 17 kts | 226° |
| 2026-05-06 22:17 | 43.67391 | -79.66036 | 566 ft | 16 kts | 227° |
| 2026-05-06 22:17 | 43.67333 | -79.66127 | 569 ft | 11 kts | 242° |
| 2026-05-06 22:18 | 43.67356 | -79.66212 | 561 ft | 7 kts | 317° |
| 2026-05-06 22:18 | 43.67376 | -79.66233 | 569 ft | 4 kts | 324° |
| 2026-05-06 22:18 | 43.67415 | -79.66266 | 566 ft | 9 kts | 329° |
| 2026-05-06 22:18 | 43.67482 | -79.66294 | 567 ft | 11 kts | 16° |
| 2026-05-06 22:19 | 43.67540 | -79.66226 | 564 ft | 15 kts | 46° |
| 2026-05-06 22:19 | 43.67761 | -79.65908 | 569 ft | 81 kts | 46° |
| 2026-05-06 22:19 | 43.68284 | -79.65148 | 570 ft | 134 kts | 46° |
| 2026-05-06 22:19 | 43.69011 | -79.64119 | 896 ft | 149 kts | 43° |
| 2026-05-06 22:20 | 43.69750 | -79.63088 | 1528 ft | 154 kts | 41° |
| 2026-05-06 22:20 | 43.70509 | -79.61989 | 2105 ft | 164 kts | 43° |
| 2026-05-06 22:20 | 43.71358 | -79.60720 | 2364 ft | 195 kts | 44° |
| 2026-05-06 22:20 | 43.72313 | -79.59230 | 2752 ft | 220 kts | 50° |
| 2026-05-06 22:21 | 43.72978 | -79.57172 | 3109 ft | 252 kts | 78° |
| 2026-05-06 22:21 | 43.72927 | -79.54656 | 3706 ft | 271 kts | 102° |
| 2026-05-06 22:21 | 43.72345 | -79.52147 | 4690 ft | 275 kts | 111° |
| 2026-05-06 22:21 | 43.71600 | -79.49720 | 5578 ft | 281 kts | 115° |
| 2026-05-06 22:22 | 43.70802 | -79.47215 | 6408 ft | 289 kts | 115° |
| 2026-05-06 22:22 | 43.70011 | -79.44614 | 6879 ft | 297 kts | 115° |
| 2026-05-06 22:22 | 43.69256 | -79.41944 | 6990 ft | 299 kts | 113° |
| 2026-05-06 22:22 | 43.68541 | -79.39247 | 7029 ft | 299 kts | 112° |
| 2026-05-06 22:23 | 43.67851 | -79.36529 | 7046 ft | 302 kts | 111° |
| 2026-05-06 22:23 | 43.67165 | -79.33760 | 7785 ft | 306 kts | 112° |
| 2026-05-06 22:23 | 43.66476 | -79.30957 | 8657 ft | 311 kts | 113° |
| 2026-05-06 22:23 | 43.65769 | -79.28103 | 9452 ft | 317 kts | 114° |
| 2026-05-06 22:24 | 43.65058 | -79.25188 | 10192 ft | 326 kts | 111° |
| 2026-05-06 22:24 | 43.64620 | -79.21992 | 10468 ft | 354 kts | 96° |
| 2026-05-06 22:24 | 43.64705 | -79.18498 | 10920 ft | 371 kts | 86° |
| 2026-05-06 22:24 | 43.64916 | -79.14920 | 11609 ft | 377 kts | 87° |
| 2026-05-06 22:25 | 43.65110 | -79.11293 | 12338 ft | 381 kts | 88° |
| 2026-05-06 22:25 | 43.65291 | -79.07618 | 13072 ft | 386 kts | 88° |
| 2026-05-06 22:25 | 43.65471 | -79.03952 | 13771 ft | 391 kts | 86° |
| 2026-05-06 22:25 | 43.65846 | -79.00200 | 14386 ft | 397 kts | 83° |
| 2026-05-06 22:26 | 43.66269 | -78.96412 | 14981 ft | 402 kts | 83° |
| 2026-05-06 22:26 | 43.66704 | -78.92570 | 15583 ft | 407 kts | 83° |
| 2026-05-06 22:26 | 43.67146 | -78.88683 | 16192 ft | 412 kts | 83° |
| 2026-05-06 22:26 | 43.67590 | -78.84750 | 16796 ft | 417 kts | 83° |
| 2026-05-06 22:27 | 43.68035 | -78.80775 | 17395 ft | 421 kts | 84° |
| 2026-05-06 22:27 | 43.68482 | -78.76758 | 17994 ft | 426 kts | 84° |
| 2026-05-06 22:27 | 43.69010 | -78.72708 | 18540 ft | 432 kts | 78° |
| 2026-05-06 22:27 | 43.69969 | -78.68750 | 19059 ft | 437 kts | 68° |
| 2026-05-06 22:28 | 43.71183 | -78.64872 | 19588 ft | 441 kts | 67° |
| 2026-05-06 22:28 | 43.72400 | -78.60961 | 20128 ft | 445 kts | 67° |
| 2026-05-06 22:28 | 43.73616 | -78.57014 | 20662 ft | 448 kts | 68° |
| 2026-05-06 22:28 | 43.74837 | -78.53027 | 21189 ft | 452 kts | 68° |
| 2026-05-06 22:29 | 43.76067 | -78.49008 | 21723 ft | 456 kts | 67° |
| 2026-05-06 22:29 | 43.77309 | -78.44950 | 22251 ft | 459 kts | 68° |
| 2026-05-06 22:29 | 43.78559 | -78.40863 | 22779 ft | 463 kts | 67° |
| 2026-05-06 22:29 | 43.79813 | -78.36748 | 23309 ft | 466 kts | 68° |
| 2026-05-06 22:30 | 43.81073 | -78.32591 | 23771 ft | 470 kts | 68° |
| 2026-05-06 22:30 | 43.82340 | -78.28410 | 24187 ft | 473 kts | 67° |
| 2026-05-06 22:30 | 43.83619 | -78.24197 | 24611 ft | 476 kts | 67° |
| 2026-05-06 22:30 | 43.84906 | -78.19956 | 25015 ft | 479 kts | 67° |
| 2026-05-06 22:31 | 43.86199 | -78.15695 | 25413 ft | 482 kts | 67° |
| 2026-05-06 22:31 | 43.87498 | -78.11397 | 25807 ft | 485 kts | 67° |
| 2026-05-06 22:31 | 43.88802 | -78.07072 | 26196 ft | 487 kts | 67° |
| 2026-05-06 22:31 | 43.90094 | -78.02778 | 26568 ft | 490 kts | 67° |
| 2026-05-06 22:32 | 43.91429 | -77.98346 | 26945 ft | 493 kts | 67° |
| 2026-05-06 22:32 | 43.92755 | -77.93940 | 27300 ft | 496 kts | 67° |
| 2026-05-06 22:32 | 43.94083 | -77.89513 | 27660 ft | 499 kts | 66° |
| 2026-05-06 22:32 | 43.95419 | -77.85055 | 28008 ft | 502 kts | 66° |
| 2026-05-06 22:33 | 43.96758 | -77.80572 | 28360 ft | 504 kts | 66° |
| 2026-05-06 22:33 | 43.98101 | -77.76060 | 28708 ft | 507 kts | 66° |
| 2026-05-06 22:33 | 43.99428 | -77.71586 | 29046 ft | 509 kts | 66° |
| 2026-05-06 22:33 | 44.00777 | -77.67020 | 29379 ft | 511 kts | 66° |
| 2026-05-06 22:34 | 44.02128 | -77.62436 | 29708 ft | 514 kts | 66° |
| 2026-05-06 22:34 | 44.03492 | -77.57823 | 29906 ft | 519 kts | 66° |
| 2026-05-06 22:34 | 44.04874 | -77.53148 | 30029 ft | 525 kts | 66° |
| 2026-05-06 22:34 | 44.06267 | -77.48430 | 30153 ft | 530 kts | 66° |
| 2026-05-06 22:35 | 44.07753 | -77.43711 | 30272 ft | 533 kts | 60° |
| 2026-05-06 22:35 | 44.09634 | -77.39266 | 30398 ft | 534 kts | 54° |
| 2026-05-06 22:35 | 44.11670 | -77.34913 | 30525 ft | 537 kts | 54° |
| 2026-05-06 22:35 | 44.13708 | -77.30548 | 30641 ft | 539 kts | 54° |
| 2026-05-06 22:36 | 44.15751 | -77.26162 | 30770 ft | 541 kts | 54° |
| 2026-05-06 22:36 | 44.17793 | -77.21756 | 30899 ft | 542 kts | 54° |
| 2026-05-06 22:36 | 44.19834 | -77.17329 | 31028 ft | 543 kts | 54° |
| 2026-05-06 22:36 | 44.21879 | -77.12886 | 31138 ft | 544 kts | 54° |
| 2026-05-06 22:37 | 44.23923 | -77.08443 | 31280 ft | 545 kts | 54° |
| 2026-05-06 22:37 | 44.25972 | -77.03986 | 31398 ft | 546 kts | 54° |
| 2026-05-06 22:37 | 44.28024 | -76.99524 | 31530 ft | 546 kts | 54° |
| 2026-05-06 22:37 | 44.30082 | -76.95045 | 31653 ft | 547 kts | 54° |
| 2026-05-06 22:38 | 44.32130 | -76.90578 | 31779 ft | 547 kts | 54° |
| 2026-05-06 22:38 | 44.34184 | -76.86089 | 31908 ft | 547 kts | 54° |
| 2026-05-06 22:38 | 44.36229 | -76.81615 | 32041 ft | 547 kts | 54° |
| 2026-05-06 22:38 | 44.38274 | -76.77130 | 32163 ft | 547 kts | 54° |
| 2026-05-06 22:39 | 44.40323 | -76.72640 | 32295 ft | 547 kts | 54° |
| 2026-05-06 22:39 | 44.42369 | -76.68152 | 32437 ft | 547 kts | 54° |
| 2026-05-06 22:39 | 44.44385 | -76.63718 | 32556 ft | 547 kts | 54° |
| 2026-05-06 22:39 | 44.46425 | -76.59218 | 32689 ft | 547 kts | 54° |
| 2026-05-06 22:40 | 44.48459 | -76.54717 | 32854 ft | 547 kts | 54° |
| 2026-05-06 22:40 | 44.50492 | -76.50209 | 32916 ft | 548 kts | 54° |
| 2026-05-06 22:40 | 44.54566 | -76.41162 | 32898 ft | 545 kts | 54° |
| 2026-05-06 22:41 | 44.58489 | -76.32410 | 32476 ft | 517 kts | 54° |
| 2026-05-06 22:41 | 44.60381 | -76.28177 | 32198 ft | 506 kts | 54° |
| 2026-05-06 22:41 | 44.62238 | -76.24029 | 31946 ft | 496 kts | 54° |
| 2026-05-06 22:42 | 44.63925 | -76.19845 | 31687 ft | 491 kts | 64° |
| 2026-05-06 22:42 | 44.65248 | -76.15458 | 31436 ft | 487 kts | 66° |
| 2026-05-06 22:42 | 44.66548 | -76.11072 | 31182 ft | 485 kts | 66° |
| 2026-05-06 22:42 | 44.67839 | -76.06702 | 30929 ft | 483 kts | 67° |
| 2026-05-06 22:43 | 44.69118 | -76.02343 | 30678 ft | 481 kts | 67° |
| 2026-05-06 22:43 | 44.70388 | -75.98001 | 30433 ft | 480 kts | 67° |
| 2026-05-06 22:43 | 44.71606 | -75.93709 | 30115 ft | 478 kts | 69° |
| 2026-05-06 22:43 | 44.72789 | -75.89349 | 29625 ft | 476 kts | 70° |
| 2026-05-06 22:44 | 44.73933 | -75.85000 | 29118 ft | 473 kts | 70° |
| 2026-05-06 22:44 | 44.75055 | -75.80666 | 28617 ft | 470 kts | 70° |
| 2026-05-06 22:44 | 44.76171 | -75.76358 | 28118 ft | 467 kts | 70° |
| 2026-05-06 22:44 | 44.77290 | -75.72081 | 27653 ft | 464 kts | 70° |
| 2026-05-06 22:45 | 44.78413 | -75.67832 | 27205 ft | 461 kts | 70° |
| 2026-05-06 22:45 | 44.79530 | -75.63619 | 26763 ft | 458 kts | 70° |
| 2026-05-06 22:45 | 44.80641 | -75.59436 | 26330 ft | 454 kts | 70° |
| 2026-05-06 22:45 | 44.81745 | -75.55280 | 25901 ft | 451 kts | 70° |
| 2026-05-06 22:46 | 44.82836 | -75.51153 | 25479 ft | 448 kts | 70° |
| 2026-05-06 22:46 | 44.83913 | -75.47056 | 25065 ft | 445 kts | 71° |
| 2026-05-06 22:46 | 44.85003 | -75.42991 | 24655 ft | 441 kts | 70° |
| 2026-05-06 22:46 | 44.86123 | -75.38983 | 24246 ft | 438 kts | 69° |
| 2026-05-06 22:47 | 44.87259 | -75.35018 | 23883 ft | 434 kts | 69° |
| 2026-05-06 22:47 | 44.88389 | -75.31097 | 23516 ft | 430 kts | 69° |
| 2026-05-06 22:47 | 44.89493 | -75.27260 | 23093 ft | 426 kts | 69° |
| 2026-05-06 22:47 | 44.90596 | -75.23397 | 22661 ft | 423 kts | 69° |
| 2026-05-06 22:48 | 44.91687 | -75.19551 | 22236 ft | 421 kts | 69° |
| 2026-05-06 22:48 | 44.92765 | -75.15722 | 21813 ft | 418 kts | 69° |
| 2026-05-06 22:48 | 44.93830 | -75.11914 | 21398 ft | 415 kts | 70° |
| 2026-05-06 22:48 | 44.94885 | -75.08134 | 20986 ft | 413 kts | 69° |
| 2026-05-06 22:49 | 44.95935 | -75.04364 | 20580 ft | 411 kts | 70° |
| 2026-05-06 22:49 | 44.96975 | -75.00615 | 20182 ft | 409 kts | 70° |
| 2026-05-06 22:49 | 44.98009 | -74.96888 | 19788 ft | 407 kts | 69° |
| 2026-05-06 22:49 | 44.99233 | -74.93297 | 19399 ft | 405 kts | 59° |
| 2026-05-06 22:50 | 45.00621 | -74.89846 | 19016 ft | 403 kts | 59° |
| 2026-05-06 22:50 | 45.02001 | -74.86400 | 18632 ft | 401 kts | 60° |
| 2026-05-06 22:50 | 45.03370 | -74.82974 | 18266 ft | 400 kts | 60° |
| 2026-05-06 22:50 | 45.04717 | -74.79586 | 17851 ft | 398 kts | 60° |
| 2026-05-06 22:51 | 45.06072 | -74.76168 | 17427 ft | 397 kts | 60° |
| 2026-05-06 22:51 | 45.07421 | -74.72763 | 17007 ft | 396 kts | 60° |
| 2026-05-06 22:51 | 45.08767 | -74.69367 | 16595 ft | 395 kts | 60° |
| 2026-05-06 22:51 | 45.10105 | -74.65987 | 16240 ft | 392 kts | 60° |
| 2026-05-06 22:52 | 45.11430 | -74.62635 | 15917 ft | 389 kts | 60° |
| 2026-05-06 22:52 | 45.12772 | -74.59316 | 15583 ft | 386 kts | 58° |
| 2026-05-06 22:52 | 45.14161 | -74.56071 | 15254 ft | 383 kts | 57° |
| 2026-05-06 22:52 | 45.15570 | -74.52884 | 14934 ft | 381 kts | 56° |
| 2026-05-06 22:53 | 45.16983 | -74.49726 | 14617 ft | 379 kts | 56° |
| 2026-05-06 22:53 | 45.18390 | -74.46577 | 14301 ft | 377 kts | 56° |
| 2026-05-06 22:53 | 45.19782 | -74.43436 | 13994 ft | 376 kts | 56° |
| 2026-05-06 22:53 | 45.21143 | -74.40340 | 13694 ft | 375 kts | 57° |
| 2026-05-06 22:54 | 45.22512 | -74.37195 | 13365 ft | 373 kts | 57° |
| 2026-05-06 22:54 | 45.23865 | -74.34067 | 13076 ft | 371 kts | 57° |
| 2026-05-06 22:54 | 45.25209 | -74.30947 | 12793 ft | 369 kts | 57° |
| 2026-05-06 22:54 | 45.26544 | -74.27841 | 12499 ft | 367 kts | 57° |
| 2026-05-06 22:55 | 45.27872 | -74.24750 | 12206 ft | 366 kts | 57° |
| 2026-05-06 22:55 | 45.29193 | -74.21670 | 11931 ft | 364 kts | 57° |
| 2026-05-06 22:55 | 45.30376 | -74.18913 | 11685 ft | 363 kts | 57° |
| 2026-05-06 22:55 | 45.31686 | -74.15864 | 11410 ft | 361 kts | 57° |
| 2026-05-06 22:56 | 45.32990 | -74.12827 | 11134 ft | 360 kts | 57° |
| 2026-05-06 22:56 | 45.34290 | -74.09796 | 10866 ft | 358 kts | 57° |
| 2026-05-06 22:56 | 45.35605 | -74.06797 | 10604 ft | 356 kts | 53° |
| 2026-05-06 22:56 | 45.37208 | -74.04157 | 10333 ft | 350 kts | 39° |
| 2026-05-06 22:57 | 45.39005 | -74.01832 | 10069 ft | 349 kts | 38° |
| 2026-05-06 22:57 | 45.40799 | -73.99506 | 9787 ft | 348 kts | 38° |
| 2026-05-06 22:57 | 45.42559 | -73.97211 | 9478 ft | 346 kts | 38° |
| 2026-05-06 22:57 | 45.44330 | -73.94897 | 9162 ft | 343 kts | 38° |
| 2026-05-06 22:58 | 45.46103 | -73.92579 | 8846 ft | 340 kts | 38° |
| 2026-05-06 22:58 | 45.47815 | -73.90343 | 8538 ft | 337 kts | 38° |
| 2026-05-06 22:58 | 45.49540 | -73.88095 | 8228 ft | 334 kts | 38° |
| 2026-05-06 22:58 | 45.51243 | -73.85875 | 7923 ft | 330 kts | 38° |
| 2026-05-06 22:59 | 45.52929 | -73.83674 | 7618 ft | 327 kts | 38° |
| 2026-05-06 22:59 | 45.54595 | -73.81493 | 7322 ft | 323 kts | 38° |
| 2026-05-06 22:59 | 45.56237 | -73.79337 | 7029 ft | 318 kts | 38° |
| 2026-05-06 22:59 | 45.57851 | -73.77214 | 6732 ft | 313 kts | 38° |
| 2026-05-06 23:00 | 45.59431 | -73.75138 | 6430 ft | 301 kts | 38° |
| 2026-05-06 23:00 | 45.60931 | -73.73164 | 6141 ft | 287 kts | 38° |
| 2026-05-06 23:00 | 45.62348 | -73.71294 | 5992 ft | 267 kts | 38° |
| 2026-05-06 23:00 | 45.63700 | -73.69514 | 6006 ft | 263 kts | 38° |
| 2026-05-06 23:01 | 45.64612 | -73.68320 | 6018 ft | 263 kts | 38° |
| 2026-05-06 23:01 | 45.65963 | -73.66551 | 6014 ft | 263 kts | 38° |
| 2026-05-06 23:01 | 45.67272 | -73.64725 | 6003 ft | 265 kts | 49° |
| 2026-05-06 23:01 | 45.68333 | -73.62560 | 5823 ft | 266 kts | 55° |
| 2026-05-06 23:02 | 45.69309 | -73.60353 | 5592 ft | 264 kts | 56° |
| 2026-05-06 23:02 | 45.70294 | -73.58102 | 5357 ft | 263 kts | 56° |
| 2026-05-06 23:02 | 45.71188 | -73.55869 | 5131 ft | 262 kts | 70° |
| 2026-05-06 23:02 | 45.71406 | -73.53340 | 4896 ft | 253 kts | 104° |
| 2026-05-06 23:03 | 45.70757 | -73.51131 | 4670 ft | 233 kts | 139° |
| 2026-05-06 23:03 | 45.69518 | -73.49795 | 4438 ft | 213 kts | 162° |
| 2026-05-06 23:03 | 45.68193 | -73.49052 | 4200 ft | 199 kts | 182° |
| 2026-05-06 23:03 | 45.66916 | -73.49313 | 3978 ft | 179 kts | 213° |
| 2026-05-06 23:04 | 45.65960 | -73.50360 | 3744 ft | 173 kts | 227° |
| 2026-05-06 23:04 | 45.65079 | -73.51531 | 3544 ft | 172 kts | 227° |
| 2026-05-06 23:04 | 45.64199 | -73.52698 | 3336 ft | 173 kts | 227° |
| 2026-05-06 23:04 | 45.63318 | -73.53863 | 3100 ft | 173 kts | 227° |
| 2026-05-06 23:05 | 45.62438 | -73.55025 | 3008 ft | 172 kts | 227° |
| 2026-05-06 23:05 | 45.61558 | -73.56187 | 2999 ft | 172 kts | 227° |
| 2026-05-06 23:05 | 45.60677 | -73.57349 | 3004 ft | 173 kts | 227° |
| 2026-05-06 23:05 | 45.59792 | -73.58517 | 3001 ft | 174 kts | 227° |
| 2026-05-06 23:06 | 45.58942 | -73.59634 | 2970 ft | 158 kts | 227° |
| 2026-05-06 23:06 | 45.58162 | -73.60661 | 2850 ft | 149 kts | 227° |
| 2026-05-06 23:06 | 45.57415 | -73.61646 | 2682 ft | 145 kts | 229° |
| 2026-05-06 23:06 | 45.56680 | -73.62614 | 2507 ft | 143 kts | 228° |
| 2026-05-06 23:07 | 45.55953 | -73.63572 | 2309 ft | 142 kts | 228° |
| 2026-05-06 23:07 | 45.55229 | -73.64525 | 2132 ft | 141 kts | 227° |
| 2026-05-06 23:07 | 45.54535 | -73.65435 | 1966 ft | 128 kts | 228° |
| 2026-05-06 23:07 | 45.53904 | -73.66264 | 1782 ft | 121 kts | 228° |
| 2026-05-06 23:08 | 45.53287 | -73.67077 | 1618 ft | 120 kts | 228° |
| 2026-05-06 23:08 | 45.52671 | -73.67888 | 1452 ft | 121 kts | 227° |
| 2026-05-06 23:08 | 45.52048 | -73.68706 | 1285 ft | 122 kts | 228° |
| 2026-05-06 23:08 | 45.51425 | -73.69525 | 1077 ft | 122 kts | 227° |
| 2026-05-06 23:09 | 45.50796 | -73.70350 | 870 ft | 123 kts | 227° |
| 2026-05-06 23:09 | 45.50151 | -73.71197 | 672 ft | 126 kts | 222° |
| 2026-05-06 23:09 | 45.49509 | -73.72042 | 472 ft | 128 kts | 223° |
| 2026-05-06 23:09 | 45.48853 | -73.72900 | 279 ft | 129 kts | 222° |
| 2026-05-06 23:10 | 45.48208 | -73.73761 | 148 ft | 126 kts | 221° |
| 2026-05-06 23:10 | 45.47610 | -73.74541 | 110 ft | 98 kts | 223° |
| 2026-05-06 23:10 | 45.47234 | -73.75033 | 114 ft | 50 kts | 222° |
| 2026-05-06 23:10 | 45.47029 | -73.75297 | 109 ft | 22 kts | 223° |
| 2026-05-06 23:11 | 45.46941 | -73.75413 | 109 ft | 18 kts | 222° |
| 2026-05-06 23:11 | 45.46837 | -73.75525 | 108 ft | 19 kts | 212° |
| 2026-05-06 23:11 | 45.46716 | -73.75596 | 108 ft | 19 kts | 195° |
| 2026-05-06 23:11 | 45.46613 | -73.75629 | 106 ft | 15 kts | 192° |
| 2026-05-06 23:12 | 45.46503 | -73.75665 | 105 ft | 17 kts | 193° |
| 2026-05-06 23:12 | 45.46396 | -73.75699 | 104 ft | 14 kts | 192° |
| 2026-05-06 23:12 | 45.46294 | -73.75727 | 104 ft | 15 kts | 186° |
| 2026-05-06 23:12 | 45.46201 | -73.75726 | 103 ft | 9 kts | 178° |
| 2026-05-06 23:13 | 45.46129 | -73.75721 | 102 ft | 12 kts | 177° |
| 2026-05-06 23:13 | 45.46062 | -73.75673 | 104 ft | 10 kts | 112° |
| 2026-05-06 23:13 | 45.46060 | -73.75581 | 104 ft | 9 kts | 88° |
| 2026-05-06 23:13 | 45.46063 | -73.75497 | 104 ft | 8 kts | 86° |
| 2026-05-06 23:14 | 45.46066 | -73.75419 | 104 ft | 8 kts | 90° |
| 2026-05-06 23:14 | 45.46052 | -73.75355 | 103 ft | 6 kts | 117° |
| 2026-05-06 23:14 | 45.46037 | -73.75313 | 105 ft | 4 kts | 117° |
| 2026-05-06 23:14 | 45.46026 | -73.75284 | 105 ft | 4 kts | 117° |
| 2026-05-06 23:15 | 45.46009 | -73.75236 | 105 ft | 7 kts | 114° |
| 2026-05-06 23:15 | 45.46006 | -73.75143 | 105 ft | 10 kts | 83° |
| 2026-05-06 23:15 | 45.46009 | -73.75045 | 105 ft | 9 kts | 94° |
| 2026-05-06 23:15 | 45.45988 | -73.74966 | 104 ft | 8 kts | 113° |
| 2026-05-06 23:16 | 45.45981 | -73.74893 | 105 ft | 6 kts | 89° |
| 2026-05-06 23:16 | 45.45971 | -73.74849 | 105 ft | 4 kts | 145° |
| 2026-05-06 23:16 | 45.45948 | -73.74849 | 105 ft | 3 kts | 180° |
| 2026-05-06 23:16 | 45.45935 | -73.74848 | 105 ft | 1 kts | 178° |
| 2026-05-06 23:17 | 45.45930 | -73.74848 | 105 ft | 0 kts | 178° |